Time;durP1;ratioP1;P1;durP2;ratioP2;P2;SDS_P1;SDS_P2;PMS_P1;PMS_P2;Temp;Humidity;BMP_temperature;BMP_pressure;BME280_temperature;BME280_humidity;BME280_pressure;Samples;Min_cycle;Max_cycle;Signal;HPM_P1;HPM_P2
2024/01/26 00:00:18;;;;;;;;;;;10.90;82.00;;;9.67;100.00;101644.97;4972109;28;20047;-75
2024/01/26 00:02:45;;;;;;;22.58;18.23;;;10.90;82.50;;;9.71;100.00;101646.69;4964183;28;19922;-75
2024/01/26 00:05:13;;;;;;;23.38;20.25;;;10.70;83.60;;;9.62;100.00;101637.06;4948655;28;20047;-75
2024/01/26 00:07:40;;;;;;;27.15;21.27;;;10.70;85.20;;;9.71;100.00;101655.47;4948196;28;20043;-75
2024/01/26 00:10:08;;;;;;;25.92;21.77;;;10.80;86.20;;;9.60;100.00;101646.69;4932817;28;20051;-75
2024/01/26 00:12:36;;;;;;;21.27;19.02;;;10.80;85.20;;;9.64;100.00;101656.34;4957857;28;20039;-75
2024/01/26 00:15:03;;;;;;;24.73;20.80;;;10.80;85.80;;;9.66;100.00;101638.81;4957408;28;20606;-75
2024/01/26 00:17:30;;;;;;;26.38;21.60;;;10.80;85.80;;;9.69;100.00;101648.44;4954717;28;20457;-75
2024/01/26 00:19:57;;;;;;;26.30;22.77;;;10.70;85.60;;;9.64;100.00;101637.94;4942604;28;20047;-75
2024/01/26 00:22:24;;;;;;;24.25;20.92;;;10.70;87.20;;;9.53;100.00;101627.44;4963617;28;20093;-75
2024/01/26 00:24:51;;;;;;;26.23;21.45;;;10.70;88.00;;;9.53;100.00;101630.06;4961044;28;20460;-75
2024/01/26 00:27:18;;;;;;;25.00;21.00;;;10.60;88.20;;;9.56;100.00;101637.94;4949318;28;20090;-75
2024/01/26 00:29:45;;;;;;;25.27;20.88;;;10.70;88.00;;;9.60;100.00;101641.44;4948662;28;20043;-75
2024/01/26 00:32:12;;;;;;;26.40;22.15;;;10.70;87.20;;;9.59;100.00;101637.06;4935704;28;20051;-75
2024/01/26 00:34:40;;;;;;;22.17;18.98;;;10.70;87.10;;;9.58;100.00;101630.91;4952699;28;20040;-75
2024/01/26 00:37:07;;;;;;;25.42;19.20;;;10.70;87.00;;;9.56;100.00;101627.41;4939985;29;20050;-75
2024/01/26 00:39:34;;;;;;;28.48;21.33;;;10.70;86.40;;;9.60;100.00;101625.69;4948115;28;20066;-74
2024/01/26 00:42:01;;;;;;;23.60;20.02;;;10.70;85.90;;;9.64;100.00;101633.56;4932273;28;20047;-75
2024/01/26 00:44:28;;;;;;;22.40;19.25;;;10.70;84.90;;;9.60;100.00;101629.19;4948740;28;20080;-75
2024/01/26 00:46:55;;;;;;;22.58;19.10;;;10.70;83.90;;;9.62;100.00;101626.56;4931712;29;20593;-75
2024/01/26 00:49:22;;;;;;;20.35;18.20;;;10.70;84.90;;;9.55;100.00;101624.81;4948093;28;20075;-75
2024/01/26 00:52:00;;;;;;;22.85;19.40;;;10.70;83.50;;;9.54;100.00;101618.66;4933086;28;20778;-75
2024/01/26 00:54:27;;;;;;;20.52;17.35;;;10.70;82.80;;;9.45;100.00;101613.44;4968556;28;20050;-75
2024/01/26 00:56:54;;;;;;;19.05;17.05;;;10.70;82.00;;;9.53;100.00;101618.69;4957954;28;20117;-75
2024/01/26 00:59:21;;;;;;;19.70;17.58;;;10.70;82.90;;;9.53;100.00;101613.44;4964038;28;20387;-76
2024/01/26 01:01:48;;;;;;;18.67;16.20;;;10.70;82.80;;;9.57;100.00;101607.28;4949776;28;20070;-75
2024/01/26 01:04:15;;;;;;;19.58;14.75;;;10.70;83.00;;;9.57;100.00;101623.06;4955202;28;20548;-75
2024/01/26 01:06:42;;;;;;;18.27;14.23;;;10.70;81.60;;;9.55;100.00;101615.16;4956686;28;20039;-75
2024/01/26 01:09:09;;;;;;;15.00;13.40;;;11.00;80.90;;;9.58;100.00;101622.19;4951483;28;20058;-75
2024/01/26 01:11:36;;;;;;;15.75;14.07;;;10.70;79.90;;;9.50;100.00;101623.03;4967696;28;20050;-75
2024/01/26 01:14:04;;;;;;;17.15;14.00;;;10.70;81.30;;;9.45;100.00;101616.06;4938530;28;20138;-75
2024/01/26 01:16:32;;;;;;;17.48;14.80;;;10.60;80.40;;;9.48;100.00;101608.16;4948577;28;20058;-75
2024/01/26 01:18:59;;;;;;;16.85;13.30;;;10.60;80.60;;;9.36;100.00;101602.03;4949343;28;20050;-75
2024/01/26 01:21:26;;;;;;;16.63;12.57;;;10.60;79.60;;;9.51;100.00;101611.66;4959309;28;20051;-75
2024/01/26 01:23:53;;;;;;;14.63;11.55;;;10.60;80.90;;;9.48;100.00;101605.53;4935156;28;20414;-75
2024/01/26 01:26:20;;;;;;;13.00;11.52;;;10.70;79.80;;;9.41;100.00;101598.50;4958823;28;20066;-75
2024/01/26 01:28:47;;;;;;;13.63;11.93;;;10.60;79.90;;;9.44;100.00;101603.75;4975378;28;20451;-75
2024/01/26 01:31:14;;;;;;;12.75;11.40;;;10.70;80.00;;;9.28;100.00;101576.63;4944485;28;20035;-75
2024/01/26 01:33:41;;;;;;;12.55;9.65;;;10.60;78.40;;;9.39;100.00;101597.63;4966786;28;20039;-76
2024/01/26 01:36:08;;;;;;;10.98;8.65;;;11.10;78.50;;;9.36;100.00;101593.25;4968989;28;20043;-76
2024/01/26 01:38:35;;;;;;;10.45;8.95;;;10.60;78.00;;;9.40;100.00;101602.91;4953022;28;20571;-75
2024/01/26 01:41:02;;;;;;;8.75;7.47;;;10.50;77.80;;;9.30;100.00;101586.28;4950646;28;20379;-75
2024/01/26 01:43:30;;;;;;;8.93;7.15;;;10.50;77.40;;;9.38;100.00;101596.78;4972371;28;20134;-75
2024/01/26 01:45:57;;;;;;;8.80;7.45;;;10.50;77.80;;;9.42;100.00;101595.91;4970778;28;20114;-75
2024/01/26 01:48:24;;;;;;;8.48;6.78;;;10.50;76.00;;;9.42;100.00;101590.66;4963596;28;20054;-75
2024/01/26 01:50:51;;;;;;;7.45;6.65;;;10.60;74.20;;;9.36;100.00;101583.63;4950743;28;20478;-75
2024/01/26 01:53:20;;;;;;;8.88;6.97;;;10.60;73.00;;;9.48;100.00;101592.41;4970737;28;20124;-75
2024/01/26 01:55:48;;;;;;;11.40;7.95;;;10.60;71.70;;;9.51;100.00;101595.88;4932983;28;20524;-75
2024/01/26 01:58:16;;;;;;;7.95;6.97;;;10.60;70.50;;;9.53;100.00;101593.28;4933365;28;20042;-75
2024/01/26 02:00:43;;;;;;;10.93;6.93;;;10.60;70.00;;;9.45;100.00;101585.38;4939699;29;20913;-76
2024/01/26 02:03:10;;;;;;;9.43;6.80;;;10.60;69.60;;;9.51;100.00;101595.03;4961030;28;20057;-75
2024/01/26 02:05:40;;;;;;;8.55;7.47;;;10.70;70.10;;;9.53;100.00;101588.00;4936225;28;20044;-75
2024/01/26 02:08:07;;;;;;;;;;;10.60;67.90;;;9.51;100.00;101589.78;4949624;28;20045;-75
2024/01/26 02:10:34;;;;;;;9.52;8.35;;;11.20;67.00;;;9.47;100.00;101578.38;4974785;28;19948;-75
2024/01/26 02:13:01;;;;;;;9.35;8.15;;;10.70;67.50;;;9.61;100.00;101593.28;4959402;28;20126;-75
2024/01/26 02:15:28;;;;;;;9.98;8.80;;;10.60;66.00;;;9.51;100.00;101593.25;4959843;28;20524;-75
2024/01/26 02:17:55;;;;;;;11.77;9.40;;;10.70;65.90;;;9.54;100.00;101595.03;4960379;28;20463;-75
2024/01/26 02:20:22;;;;;;;10.73;9.57;;;11.20;66.00;;;9.50;100.00;101586.25;4950584;28;20058;-75
2024/01/26 02:23:09;;;;;;;10.05;8.63;;;10.70;64.70;;;9.51;100.00;101595.03;4964075;28;20098;-76
2024/01/26 02:25:36;;;;;;;13.60;10.32;;;10.70;64.20;;;9.45;100.00;101569.63;4950175;28;20039;-75
2024/01/26 02:28:03;;;;;;;12.45;9.77;;;10.70;63.80;;;9.54;100.00;101581.88;4976104;28;20043;-75
2024/01/26 02:30:33;;;;;;;11.98;9.85;;;10.70;63.00;;;9.58;100.00;101588.88;4971536;28;20613;-75
2024/01/26 02:33:00;;;;;;;12.45;9.57;;;10.70;61.70;;;9.50;100.00;101573.13;4953435;28;20046;-75
2024/01/26 02:35:27;;;;;;;11.45;9.82;;;10.70;61.00;;;9.50;100.00;101573.13;4952783;28;20040;-76
2024/01/26 02:37:54;;;;;;;13.07;9.98;;;10.70;60.80;;;9.47;100.00;101570.50;4955453;28;20050;-75
2024/01/26 02:40:21;;;;;;;12.32;9.20;;;10.70;62.20;;;9.50;100.00;101575.75;4954126;28;20058;-75
2024/01/26 02:42:48;;;;;;;12.90;10.05;;;10.60;62.80;;;9.45;100.00;101589.78;4947816;28;20070;-75
2024/01/26 02:45:15;;;;;;;13.00;9.95;;;10.60;65.60;;;9.51;100.00;101589.78;4930485;29;20130;-75
2024/01/26 02:47:42;;;;;;;12.77;11.18;;;10.60;66.30;;;9.44;100.00;101581.00;4946397;28;20051;-75
2024/01/26 02:50:10;;;;;;;14.45;9.95;;;10.60;67.10;;;9.52;100.00;101591.53;4941849;28;20062;-75
2024/01/26 02:52:37;;;;;;;12.88;11.18;;;10.60;67.90;;;9.47;100.00;101586.25;4950153;28;20155;-74
2024/01/26 02:55:04;;;;;;;12.45;10.68;;;10.60;69.10;;;9.39;100.00;101571.38;4949598;28;20355;-75
2024/01/26 02:57:31;;;;;;;13.77;10.90;;;10.60;71.50;;;9.47;100.00;101580.16;4944431;28;20772;-75
2024/01/26 02:59:58;;;;;;;13.30;11.57;;;10.60;71.40;;;9.42;100.00;101581.88;4952172;28;20059;-75
2024/01/26 03:02:25;;;;;;;13.93;10.85;;;10.60;71.90;;;9.32;100.00;101567.88;4965681;28;20094;-75
2024/01/26 03:04:52;;;;;;;14.07;10.18;;;10.50;72.60;;;9.36;100.00;101572.25;4949949;28;20039;-75
2024/01/26 03:07:19;;;;;;;10.93;9.73;;;10.50;73.70;;;9.45;100.00;101576.66;4952727;28;20543;-75
2024/01/26 03:09:46;;;;;;;13.77;10.40;;;10.60;71.50;;;9.38;100.00;101578.41;4934485;29;20099;-75
2024/01/26 03:12:13;;;;;;;12.60;11.27;;;10.60;72.80;;;9.31;100.00;101585.41;4949058;28;20498;-75
2024/01/26 03:14:40;;;;;;;14.23;10.30;;;10.50;73.30;;;9.30;100.00;101575.75;4973107;28;20126;-75
2024/01/26 03:17:07;;;;;;;12.35;9.18;;;10.50;73.80;;;9.34;100.00;101587.13;4948760;28;20048;-75
2024/01/26 03:19:36;;;;;;;10.90;9.52;;;10.40;75.20;;;9.31;100.00;101584.50;4949293;28;20050;-75
2024/01/26 03:22:03;;;;;;;11.45;9.85;;;10.40;74.70;;;9.33;100.00;101588.91;4950713;28;20051;-75
2024/01/26 03:24:30;;;;;;;11.68;9.88;;;10.40;74.90;;;9.32;100.00;101594.13;4957908;28;20486;-74
2024/01/26 03:26:58;;;;;;;12.38;9.27;;;10.40;76.00;;;9.30;100.00;101585.38;4948317;28;20063;-75
2024/01/26 03:29:25;;;;;;;12.45;10.32;;;10.40;75.10;;;9.21;100.00;101565.25;4950406;28;20448;-74
2024/01/26 03:31:52;;;;;;;10.05;8.90;;;10.90;76.00;;;9.25;100.00;101572.25;4965109;28;20401;-75
2024/01/26 03:34:19;;;;;;;11.38;9.45;;;10.40;75.60;;;9.20;100.00;101581.88;4931961;29;20061;-75
2024/01/26 03:36:47;;;;;;;11.60;8.18;;;10.90;76.90;;;9.21;100.00;101575.75;4940637;28;20059;-75
2024/01/26 03:39:14;;;;;;;10.02;9.00;;;10.40;75.80;;;9.22;100.00;101581.00;4948677;28;20043;-74
2024/01/26 03:41:41;;;;;;;10.98;9.00;;;10.30;75.00;;;9.31;100.00;101585.41;4949128;28;20035;-75
2024/01/26 03:44:10;;;;;;;10.75;8.23;;;10.40;74.00;;;9.31;100.00;101588.03;4958505;28;20110;-75
2024/01/26 03:46:43;;;;;;;12.43;9.43;;;10.40;73.00;;;9.22;100.00;101570.50;4962372;28;20039;-75
2024/01/26 03:49:10;;;;;;;17.02;8.60;;;10.40;71.30;;;9.36;100.00;101598.50;4966939;28;21120;-75
2024/01/26 03:51:38;;;;;;;21.30;8.50;;;10.40;72.10;;;9.26;100.00;101578.38;4969260;28;20061;-75
2024/01/26 03:54:06;;;;;;;9.55;7.97;;;10.40;71.30;;;9.28;100.00;101576.63;4940976;28;20058;-75
2024/01/26 03:56:33;;;;;;;11.88;8.38;;;10.40;72.30;;;9.35;100.00;101584.50;4974575;28;20047;-75
2024/01/26 03:59:00;;;;;;;8.00;7.22;;;10.40;71.70;;;9.30;100.00;101574.88;4931584;28;20063;-75
2024/01/26 04:01:27;;;;;;;8.55;7.35;;;10.40;70.70;;;9.31;100.00;101580.13;4952068;28;20485;-75
2024/01/26 04:03:54;;;;;;;7.38;6.60;;;10.40;70.80;;;9.39;100.00;101577.53;4951185;28;20068;-75
2024/01/26 04:06:26;;;;;;;7.82;6.22;;;10.40;70.50;;;9.30;100.00;101570.50;4967138;28;20042;-75
2024/01/26 04:08:58;;;;;;;6.90;6.15;;;10.50;71.90;;;9.34;100.00;101571.38;4948689;28;20052;-74
2024/01/26 04:11:25;;;;;;;7.22;6.30;;;10.50;73.20;;;9.32;100.00;101581.88;4958564;28;20053;-75
2024/01/26 04:13:52;;;;;;;7.72;6.07;;;10.50;75.90;;;9.32;100.00;101584.53;4955899;28;20035;-75
2024/01/26 04:16:19;;;;;;;8.55;5.68;;;10.50;76.30;;;9.34;100.00;101589.75;4966937;28;20053;-75
2024/01/26 04:18:47;;;;;;;7.93;6.07;;;10.40;78.00;;;9.33;100.00;101581.00;4959821;28;20404;-75
2024/01/26 04:21:17;;;;;;;8.70;6.20;;;10.40;79.00;;;9.22;100.00;101556.50;4964128;28;20049;-75
2024/01/26 04:23:46;;;;;;;6.30;4.55;;;10.40;80.80;;;9.20;100.00;101566.13;4939737;28;20532;-75
2024/01/26 04:26:14;;;;;;;7.05;5.30;;;10.50;85.00;;;9.18;100.00;101583.63;4950596;28;20050;-75
2024/01/26 04:28:42;;;;;;;6.43;5.30;;;10.30;88.90;;;9.13;100.00;101583.63;4951502;28;20548;-75
2024/01/26 04:31:09;;;;;;;6.85;4.97;;;10.20;91.00;;;9.07;100.00;101581.84;4967151;28;20053;-75
2024/01/26 04:33:36;;;;;;;4.93;4.30;;;10.20;91.50;;;9.14;100.00;101595.88;4958826;28;20131;-75
2024/01/26 04:36:08;;;;;;;7.90;4.95;;;10.20;92.00;;;9.05;100.00;101591.47;4956708;28;20549;-75
2024/01/26 04:38:38;;;;;;;4.20;3.50;;;10.20;92.40;;;9.00;100.00;101592.34;4951555;28;20506;-75
2024/01/26 04:41:05;;;;;;;4.55;4.15;;;10.30;93.20;;;9.00;100.00;101597.59;4955921;28;20047;-75
2024/01/26 04:43:32;;;;;;;6.65;3.63;;;10.10;94.20;;;8.97;100.00;101605.47;4953460;28;20046;-75
2024/01/26 04:46:03;;;;;;;5.32;3.17;;;10.10;94.30;;;8.99;100.00;101606.34;4952467;28;20059;-75
2024/01/26 04:48:29;;;;;;;;;;;10.10;94.40;;;8.93;100.00;101602.84;4963586;28;20043;-75
2024/01/26 04:50:57;;;;;;;4.43;3.00;;;10.10;94.50;;;8.85;100.00;101574.81;4972550;28;19930;-76
2024/01/26 04:53:24;;;;;;;6.90;4.25;;;10.00;94.50;;;8.89;100.00;101581.81;4966757;28;20073;-75
2024/01/26 04:55:51;;;;;;;3.40;3.10;;;10.10;94.60;;;8.90;100.00;101579.22;4943025;28;20038;-75
2024/01/26 04:58:17;;;;;;;5.53;2.65;;;10.10;94.40;;;8.98;100.00;101594.97;4927322;28;20051;-75
2024/01/26 05:00:47;;;;;;;3.92;2.60;;;10.10;94.00;;;8.91;100.00;101578.34;4952670;28;20030;-75
2024/01/26 05:03:14;;;;;;;5.65;3.50;;;10.10;94.50;;;8.94;100.00;101578.34;4966829;28;20417;-75
2024/01/26 05:05:41;;;;;;;5.63;2.75;;;10.10;94.60;;;8.91;100.00;101575.72;4967745;28;20043;-75
2024/01/26 05:08:09;;;;;;;2.97;2.40;;;10.20;95.10;;;8.97;100.00;101577.44;4950480;28;20097;-75
2024/01/26 05:10:36;;;;;;;3.58;2.88;;;10.10;95.00;;;8.93;100.00;101571.34;4958901;28;20053;-75
2024/01/26 05:13:03;;;;;;;5.10;2.78;;;10.10;95.30;;;8.97;100.00;101569.56;4961889;28;20051;-75
2024/01/26 05:15:30;;;;;;;3.75;2.92;;;10.10;95.30;;;8.94;100.00;101559.06;4964801;28;20051;-75
2024/01/26 05:17:58;;;;;;;4.65;2.75;;;10.60;95.70;;;8.98;100.00;101568.72;4963806;28;20066;-75
2024/01/26 05:20:25;;;;;;;6.22;2.85;;;10.10;95.30;;;8.95;100.00;101563.44;4950816;28;20125;-75
2024/01/26 05:22:52;;;;;;;2.75;2.53;;;10.20;95.00;;;9.02;100.00;101566.97;4959499;28;20070;-75
2024/01/26 05:25:19;;;;;;;3.40;3.10;;;10.10;94.80;;;8.97;100.00;101559.06;4966483;28;20054;-75
2024/01/26 05:27:46;;;;;;;3.83;2.80;;;10.30;94.30;;;9.05;100.00;101567.84;4966308;28;20505;-75
2024/01/26 05:30:13;;;;;;;3.15;2.72;;;10.20;93.80;;;9.06;100.00;101563.50;4966740;28;20501;-75
2024/01/26 05:32:40;;;;;;;3.13;2.72;;;10.10;93.60;;;9.02;100.00;101559.09;4968211;28;20043;-75
2024/01/26 05:35:08;;;;;;;5.00;3.10;;;10.20;93.50;;;9.00;100.00;101551.22;4950486;28;20051;-75
2024/01/26 05:37:36;;;;;;;4.53;3.05;;;10.20;93.40;;;9.05;100.00;101559.97;4945562;28;20051;-76
2024/01/26 05:40:07;;;;;;;5.22;2.88;;;10.20;93.50;;;9.07;100.00;101563.47;4955521;28;20386;-76
2024/01/26 05:42:37;;;;;;;5.22;3.35;;;10.20;93.40;;;9.05;100.00;101566.97;4948824;28;20155;-78
2024/01/26 05:45:05;;;;;;;;;;;10.20;93.10;;;9.01;100.00;101560.84;4964574;28;20055;-76
2024/01/26 05:47:32;;;;;;;5.60;3.58;;;10.10;93.50;;;8.94;100.00;101559.97;4934242;28;19923;-76
2024/01/26 05:49:59;;;;;;;5.68;3.30;;;10.10;94.20;;;9.01;100.00;101573.97;4960325;28;20047;-76
2024/01/26 05:52:26;;;;;;;3.60;2.83;;;10.10;94.00;;;8.96;100.00;101564.34;4956986;28;20042;-77
2024/01/26 05:54:57;;;;;;;3.25;2.83;;;10.10;94.40;;;9.01;100.00;101573.97;4971060;28;20070;-76
2024/01/26 05:57:24;;;;;;;;;;;10.10;93.60;;;8.94;100.00;101574.81;4964597;28;20516;-76
2024/01/26 05:59:50;;;;;;;4.63;2.97;;;10.10;93.30;;;9.02;100.00;101580.97;4970002;28;20008;-76
2024/01/26 06:02:18;;;;;;;6.60;3.67;;;10.10;93.30;;;9.01;100.00;101567.84;4965920;28;20163;-76
2024/01/26 06:04:47;;;;;;;3.78;3.00;;;10.20;93.30;;;9.06;100.00;101574.00;4955376;28;20123;-75
2024/01/26 06:07:14;;;;;;;3.88;3.22;;;10.20;93.20;;;9.01;100.00;101562.59;4928881;28;20051;-76
2024/01/26 06:09:41;;;;;;;5.20;3.20;;;10.20;93.00;;;9.15;100.00;101583.63;4953846;28;20070;-76
2024/01/26 06:12:08;;;;;;;5.68;4.13;;;10.40;93.00;;;9.10;100.00;101578.38;4951220;28;20055;-76
2024/01/26 06:14:36;;;;;;;4.30;3.83;;;10.20;93.00;;;9.11;100.00;101581.84;4969663;28;20043;-75
2024/01/26 06:17:03;;;;;;;3.45;2.95;;;10.20;93.10;;;9.06;100.00;101581.88;4939398;28;20099;-75
2024/01/26 06:19:30;;;;;;;7.00;3.58;;;10.20;92.70;;;8.94;100.00;101573.09;4958544;28;20047;-76
2024/01/26 06:21:57;;;;;;;5.07;3.13;;;10.20;92.90;;;9.03;100.00;101589.72;4950959;28;20109;-76
2024/01/26 06:24:24;;;;;;;5.47;4.07;;;10.20;93.50;;;9.00;100.00;101580.09;4970457;28;20122;-76
2024/01/26 06:26:51;;;;;;;4.88;3.50;;;10.10;94.20;;;9.05;100.00;101595.84;4969139;28;20045;-76
2024/01/26 06:29:22;;;;;;;4.95;3.20;;;10.90;93.60;;;8.92;100.00;101571.31;4958215;28;20409;-75
2024/01/26 06:31:52;;;;;;;4.90;3.38;;;10.10;93.70;;;8.94;100.00;101565.22;4957945;28;20061;-76
2024/01/26 06:34:19;;;;;;;5.63;3.90;;;10.10;93.70;;;8.98;100.00;101580.97;4948634;28;20039;-75
2024/01/26 06:36:46;;;;;;;4.88;3.22;;;10.10;93.80;;;8.95;100.00;101576.56;4963965;28;20539;-75
2024/01/26 06:39:13;;;;;;;3.75;3.33;;;10.10;93.70;;;8.94;100.00;101574.81;4939137;28;20090;-76
2024/01/26 06:41:41;;;;;;;4.32;3.65;;;10.10;93.70;;;8.98;100.00;101573.09;4958669;28;20050;-76
2024/01/26 06:44:14;;;;;;;5.65;3.40;;;10.10;93.70;;;9.05;100.00;101585.34;4933843;28;20085;-75
2024/01/26 06:46:41;;;;;;;5.20;3.97;;;10.10;92.80;;;9.01;100.00;101573.97;4972026;28;20617;-75
2024/01/26 06:49:09;;;;;;;4.30;3.80;;;10.10;92.50;;;8.98;100.00;101568.72;4966055;28;20054;-75
2024/01/26 06:51:39;;;;;;;5.95;4.07;;;10.10;92.50;;;9.03;100.00;101572.22;4968447;28;20501;-76
2024/01/26 06:54:06;;;;;;;4.82;3.97;;;10.20;92.70;;;8.98;100.00;101562.59;4932607;28;20075;-75
2024/01/26 06:56:33;;;;;;;7.43;4.18;;;10.20;92.90;;;8.99;100.00;101565.22;4945065;28;20047;-75
2024/01/26 06:59:00;;;;;;;6.75;4.57;;;10.20;92.90;;;9.00;100.00;101574.84;4974215;28;20074;-75
2024/01/26 07:01:27;;;;;;;8.63;3.85;;;10.20;92.60;;;9.01;100.00;101566.09;4958049;28;20042;-76
2024/01/26 07:03:57;;;;;;;4.75;4.25;;;10.20;92.20;;;8.95;100.00;101566.06;4973245;28;20953;-76
2024/01/26 07:06:24;;;;;;;7.00;3.92;;;10.20;92.00;;;9.05;100.00;101569.59;4971884;28;20130;-76
2024/01/26 07:08:52;;;;;;;5.00;3.92;;;10.20;92.10;;;9.04;100.00;101571.34;4965433;28;20479;-75
2024/01/26 07:11:24;;;;;;;13.55;8.95;;;10.20;91.90;;;9.02;100.00;101570.47;4954118;28;20121;-75
2024/01/26 07:13:51;;;;;;;6.22;4.05;;;10.20;91.30;;;9.06;100.00;101559.09;4940736;29;20067;-74
2024/01/26 07:16:18;;;;;;;4.90;3.97;;;10.20;91.20;;;9.05;100.00;101551.19;4969412;28;20042;-74
2024/01/26 07:18:45;;;;;;;4.30;3.88;;;10.20;90.40;;;8.98;100.00;101554.72;4968649;28;20506;-74
2024/01/26 07:21:18;;;;;;;5.15;3.65;;;10.20;90.60;;;9.01;100.00;101552.97;4966255;28;20046;-74
2024/01/26 07:23:45;;;;;;;5.93;4.47;;;10.20;90.70;;;9.04;100.00;101554.72;4964204;28;20118;-74
2024/01/26 07:26:21;;;;;;;6.60;4.78;;;10.20;90.70;;;9.03;100.00;101539.81;4952494;28;20043;-74
2024/01/26 07:28:48;;;;;;;4.45;3.53;;;10.30;90.70;;;9.09;100.00;101550.34;4958044;28;20071;-74
2024/01/26 07:31:15;;;;;;;7.80;3.80;;;10.20;90.30;;;9.09;100.00;101545.09;4959479;28;20038;-75
2024/01/26 07:33:46;;;;;;;6.35;3.65;;;10.30;90.00;;;9.14;100.00;101550.38;4968146;28;20038;-74
2024/01/26 07:36:13;;;;;;;5.30;4.18;;;10.30;90.10;;;9.10;100.00;101540.72;4964511;28;20134;-75
2024/01/26 07:38:41;;;;;;;8.27;4.30;;;10.20;90.10;;;9.14;100.00;101532.84;4954174;28;20050;-74
2024/01/26 07:41:08;;;;;;;5.10;4.15;;;10.60;90.70;;;9.08;100.00;101528.47;4925888;28;20605;-75
2024/01/26 07:43:35;;;;;;;6.55;4.03;;;10.30;90.10;;;9.14;100.00;101527.59;4949097;28;20059;-75
2024/01/26 07:46:02;;;;;;;5.53;4.10;;;10.30;90.00;;;9.10;100.00;101523.22;4959066;28;20043;-75
2024/01/26 07:48:30;;;;;;;6.63;3.83;;;10.30;89.90;;;9.03;100.00;101505.69;4953689;28;20085;-75
2024/01/26 07:50:57;;;;;;;4.65;3.65;;;10.30;89.50;;;9.14;100.00;101517.09;4951118;28;20082;-75
2024/01/26 07:53:24;;;;;;;6.50;4.43;;;10.30;89.40;;;9.13;100.00;101507.47;4964790;28;20463;-75
2024/01/26 07:55:51;;;;;;;4.30;3.83;;;10.30;87.80;;;9.16;100.00;101522.34;4964744;28;20039;-75
2024/01/26 07:58:18;;;;;;;4.20;3.80;;;10.40;88.30;;;9.18;100.00;101518.84;4967521;28;20045;-75
2024/01/26 08:00:47;;;;;;;4.38;3.50;;;10.30;87.80;;;9.10;100.00;101496.97;4967707;28;20034;-75
2024/01/26 08:03:15;;;;;;;4.32;3.63;;;10.40;88.00;;;9.21;100.00;101512.72;4956521;28;20125;-74
2024/01/26 08:05:42;;;;;;;7.43;3.97;;;10.40;87.50;;;9.22;100.00;101502.22;4963035;28;20502;-74
2024/01/26 08:08:09;;;;;;;4.70;4.10;;;10.90;86.60;;;9.23;100.00;101518.84;4957881;28;20071;-74
2024/01/26 08:10:37;;;;;;;5.35;4.10;;;10.40;86.70;;;9.25;100.00;101510.97;4950795;28;20131;-75
2024/01/26 08:13:04;;;;;;;5.75;3.95;;;10.40;85.10;;;9.25;100.00;101498.69;4949717;28;20071;-74
2024/01/26 08:15:31;;;;;;;6.15;3.75;;;10.40;85.10;;;9.26;100.00;101489.94;4951761;28;20039;-74
2024/01/26 08:17:58;;;;;;;5.32;2.97;;;10.70;85.80;;;9.30;100.00;101493.47;4952293;28;20410;-75
2024/01/26 08:20:26;;;;;;;6.03;3.50;;;10.50;84.90;;;9.29;100.00;101492.59;4953885;28;20038;-74
2024/01/26 08:22:53;;;;;;;3.70;3.30;;;10.40;83.90;;;9.21;100.00;101484.72;4959676;28;20093;-75
2024/01/26 08:25:20;;;;;;;5.00;3.40;;;10.40;85.50;;;9.29;100.00;101494.34;4944227;28;20497;-74
2024/01/26 08:27:47;;;;;;;5.13;4.57;;;10.50;81.70;;;9.44;100.00;101514.44;4949072;28;20054;-75
2024/01/26 08:30:15;;;;;;;5.07;3.72;;;10.50;81.30;;;9.38;100.00;101501.34;4958467;28;20453;-74
2024/01/26 08:32:43;;;;;;;5.20;3.75;;;10.50;80.30;;;9.41;100.00;101503.94;4943869;28;20049;-74
2024/01/26 08:35:14;;;;;;;4.20;2.90;;;10.50;79.60;;;9.42;100.00;101500.44;4948126;28;20040;-74
2024/01/26 08:37:41;;;;;;;4.90;3.45;;;10.50;81.10;;;9.40;100.00;101497.84;4933228;28;20405;-74
2024/01/26 08:40:09;;;;;;;4.65;3.33;;;10.50;80.20;;;9.43;100.00;101494.31;4941573;28;20065;-74
2024/01/26 08:42:36;;;;;;;3.40;3.03;;;10.60;80.00;;;9.45;100.00;101492.59;4972184;28;20502;-75
2024/01/26 08:45:04;;;;;;;5.07;2.90;;;11.00;78.80;;;9.44;100.00;101491.69;4944116;28;20058;-75
2024/01/26 08:47:31;;;;;;;4.07;2.72;;;10.60;76.70;;;9.45;100.00;101488.19;4951822;28;20047;-75
2024/01/26 08:49:58;;;;;;;3.95;2.50;;;10.60;75.60;;;9.41;100.00;101489.06;4949277;28;20070;-74
2024/01/26 08:52:25;;;;;;;3.72;2.80;;;10.50;74.40;;;9.42;100.00;101485.56;4949629;28;20043;-74
2024/01/26 08:54:53;;;;;;;8.57;2.97;;;10.50;75.80;;;9.42;100.00;101503.97;4933336;28;20062;-75
2024/01/26 08:57:20;;;;;;;3.35;2.60;;;10.50;75.80;;;9.42;100.00;101485.56;4948683;28;20043;-75
2024/01/26 08:59:47;;;;;;;3.80;2.50;;;10.60;73.90;;;9.36;100.00;101477.69;4948819;28;20039;-75
2024/01/26 09:02:14;;;;;;;3.30;2.58;;;10.50;72.90;;;9.42;100.00;101487.31;4936836;28;20046;-75
2024/01/26 09:04:42;;;;;;;3.38;2.80;;;10.50;75.50;;;9.39;100.00;101476.81;4953451;28;20042;-74
2024/01/26 09:07:09;;;;;;;4.00;3.10;;;10.50;74.70;;;9.36;100.00;101470.69;4935202;28;20505;-74
2024/01/26 09:09:38;;;;;;;3.50;3.20;;;10.50;76.50;;;9.31;100.00;101459.31;4932080;29;20043;-75
2024/01/26 09:12:06;;;;;;;4.25;3.22;;;10.50;76.20;;;9.43;100.00;101473.28;4948579;28;20521;-75
2024/01/26 09:14:33;;;;;;;7.35;5.50;;;10.50;74.90;;;9.38;100.00;101468.06;4941690;28;20030;-75
2024/01/26 09:17:01;;;;;;;4.13;3.53;;;10.60;78.00;;;9.34;100.00;101456.69;4956604;28;20410;-75
2024/01/26 09:19:28;;;;;;;4.82;4.07;;;10.50;78.10;;;9.34;100.00;101446.19;4954200;28;20410;-75
2024/01/26 09:21:55;;;;;;;5.03;4.32;;;10.50;79.90;;;9.31;100.00;101451.44;4946063;28;20134;-74
2024/01/26 09:24:23;;;;;;;4.57;3.60;;;10.50;76.10;;;9.34;100.00;101456.69;4952946;28;20039;-74
2024/01/26 09:26:52;;;;;;;7.85;5.97;;;10.50;77.60;;;9.44;100.00;101456.66;4958116;28;20082;-75
2024/01/26 09:29:20;;;;;;;5.95;4.65;;;10.50;79.30;;;9.40;100.00;101450.56;4967118;28;20061;-75
2024/01/26 09:31:47;;;;;;;10.35;9.18;;;10.50;76.60;;;9.36;100.00;101441.78;4954123;28;20470;-76
2024/01/26 09:34:14;;;;;;;9.73;8.13;;;10.60;75.80;;;9.35;100.00;101436.53;4950124;28;20777;-75
2024/01/26 09:36:41;;;;;;;16.55;13.32;;;10.60;77.60;;;9.39;100.00;101446.19;4981516;28;20043;-75
2024/01/26 09:39:09;;;;;;;8.70;3.88;;;10.60;70.50;;;9.45;100.00;101458.44;4936615;28;20501;-75
2024/01/26 09:41:36;;;;;;;10.10;9.27;;;10.60;72.50;;;9.46;100.00;101449.66;4974243;28;20445;-75
2024/01/26 09:44:04;;;;;;;5.35;3.83;;;10.60;70.80;;;9.48;100.00;101437.41;4965117;28;20043;-75
2024/01/26 09:46:35;;;;;;;5.63;3.00;;;10.60;69.60;;;9.48;100.00;101434.78;4969196;28;20395;-77
2024/01/26 09:49:06;;;;;;;5.43;3.25;;;10.60;65.60;;;9.45;100.00;101430.41;4956600;28;20808;-80
2024/01/26 09:51:34;;;;;;;4.53;2.70;;;10.60;67.90;;;9.44;100.00;101431.28;4957302;28;20478;-81
2024/01/26 09:54:05;;;;;;;4.78;3.60;;;11.10;66.10;;;9.36;100.00;101412.91;4947175;28;20081;-82
2024/01/26 09:56:38;;;;;;;5.65;3.50;;;10.60;68.00;;;9.44;100.00;101431.28;4941824;28;20042;-80
2024/01/26 09:59:08;;;;;;;3.55;2.55;;;10.60;66.40;;;9.46;100.00;101428.66;4937449;28;20146;-79
2024/01/26 10:01:35;;;;;;;5.32;3.03;;;11.50;57.90;;;9.47;100.00;101430.41;4966047;28;20050;-76
2024/01/26 10:04:03;;;;;;;5.13;3.40;;;10.70;58.80;;;9.39;100.00;101411.16;4967067;28;20066;-76
2024/01/26 10:06:31;;;;;;;4.70;3.10;;;10.70;60.60;;;9.51;100.00;101433.00;4936405;29;20071;-76
2024/01/26 10:08:58;;;;;;;3.92;3.35;;;10.60;55.90;;;9.54;100.00;101447.03;4957548;28;20046;-76
2024/01/26 10:11:25;;;;;;;4.78;3.40;;;10.70;55.20;;;9.57;100.00;101447.00;4943872;28;20057;-77